sensor_id;sensor_type;location;lat;lon;timestamp;pressure;altitude;pressure_sealevel;temperature;humidity
44359;BME280;30077;52.474;13.326;2023-02-17T00:01:38;101298.00;;;7.69;100.00
44359;BME280;30077;52.474;13.326;2023-02-17T00:06:39;101285.81;;;7.60;100.00
44359;BME280;30077;52.474;13.326;2023-02-17T00:11:40;101272.91;;;7.45;100.00
44359;BME280;30077;52.474;13.326;2023-02-17T00:16:40;101269.50;;;7.37;100.00
44359;BME280;30077;52.474;13.326;2023-02-17T00:21:41;101258.19;;;7.29;100.00
44359;BME280;30077;52.474;13.326;2023-02-17T00:26:41;101240.59;;;7.24;100.00
44359;BME280;30077;52.474;13.326;2023-02-17T00:31:41;101237.94;;;7.24;100.00
44359;BME280;30077;52.474;13.326;2023-02-17T00:36:41;101241.53;;;7.23;100.00
44359;BME280;30077;52.474;13.326;2023-02-17T00:41:42;101235.28;;;7.24;100.00
44359;BME280;30077;52.474;13.326;2023-02-17T00:46:43;101237.25;;;7.16;100.00
44359;BME280;30077;52.474;13.326;2023-02-17T00:51:43;101221.34;;;7.15;100.00
44359;BME280;30077;52.474;13.326;2023-02-17T00:56:43;101223.13;;;7.14;100.00
44359;BME280;30077;52.474;13.326;2023-02-17T01:01:44;101203.69;;;7.15;100.00
44359;BME280;30077;52.474;13.326;2023-02-17T01:06:44;101196.59;;;7.14;100.00
44359;BME280;30077;52.474;13.326;2023-02-17T01:11:44;101196.56;;;7.16;100.00
44359;BME280;30077;52.474;13.326;2023-02-17T01:16:45;101187.75;;;7.14;100.00
44359;BME280;30077;52.474;13.326;2023-02-17T01:21:46;101186.91;;;7.13;100.00
44359;BME280;30077;52.474;13.326;2023-02-17T01:26:46;101180.69;;;7.14;100.00
44359;BME280;30077;52.474;13.326;2023-02-17T01:31:46;101170.00;;;7.17;100.00
44359;BME280;30077;52.474;13.326;2023-02-17T01:36:46;101160.13;;;7.22;100.00
44359;BME280;30077;52.474;13.326;2023-02-17T01:41:47;101161.03;;;7.23;100.00
44359;BME280;30077;52.474;13.326;2023-02-17T01:46:48;101151.28;;;7.23;100.00
44359;BME280;30077;52.474;13.326;2023-02-17T01:51:51;101138.03;;;7.22;100.00
44359;BME280;30077;52.474;13.326;2023-02-17T01:56:52;101135.38;;;7.22;100.00
44359;BME280;30077;52.474;13.326;2023-02-17T02:01:56;101139.00;;;7.19;100.00
44359;BME280;30077;52.474;13.326;2023-02-17T02:06:57;101134.44;;;7.24;100.00
44359;BME280;30077;52.474;13.326;2023-02-17T02:11:58;101113.34;;;7.18;100.00
44359;BME280;30077;52.474;13.326;2023-02-17T02:17:07;101111.69;;;7.14;100.00
44359;BME280;30077;52.474;13.326;2023-02-17T02:27:49;101077.38;;;7.08;100.00
44359;BME280;30077;52.474;13.326;2023-02-17T02:33:01;101061.44;;;7.08;100.00
44359;BME280;30077;52.474;13.326;2023-02-17T02:38:10;101056.22;;;7.05;100.00
44359;BME280;30077;52.474;13.326;2023-02-17T02:43:12;101055.34;;;7.05;100.00
44359;BME280;30077;52.474;13.326;2023-02-17T02:48:13;101053.63;;;7.02;100.00
44359;BME280;30077;52.474;13.326;2023-02-17T02:58:35;101034.22;;;7.00;100.00
44359;BME280;30077;52.474;13.326;2023-02-17T03:03:40;101037.81;;;6.97;100.00
44359;BME280;30077;52.474;13.326;2023-02-17T03:08:43;101013.97;;;6.96;100.00
44359;BME280;30077;52.474;13.326;2023-02-17T03:13:46;100997.25;;;6.94;100.00
44359;BME280;30077;52.474;13.326;2023-02-17T03:18:47;101002.56;;;6.94;100.00
44359;BME280;30077;52.474;13.326;2023-02-17T03:23:47;100983.81;;;7.00;100.00
44359;BME280;30077;52.474;13.326;2023-02-17T03:28:47;100996.25;;;6.98;100.00
44359;BME280;30077;52.474;13.326;2023-02-17T03:33:47;101001.63;;;6.95;100.00
44359;BME280;30077;52.474;13.326;2023-02-17T03:38:48;100998.06;;;6.96;100.00
44359;BME280;30077;52.474;13.326;2023-02-17T03:43:48;101007.81;;;6.95;100.00
44359;BME280;30077;52.474;13.326;2023-02-17T03:48:48;100991.75;;;7.00;100.00
44359;BME280;30077;52.474;13.326;2023-02-17T03:53:48;100987.44;;;6.96;100.00
44359;BME280;30077;52.474;13.326;2023-02-17T03:58:49;100982.16;;;6.96;100.00
44359;BME280;30077;52.474;13.326;2023-02-17T04:03:49;100990.22;;;6.91;100.00
44359;BME280;30077;52.474;13.326;2023-02-17T04:08:50;100979.69;;;6.88;100.00
44359;BME280;30077;52.474;13.326;2023-02-17T04:13:50;100970.00;;;6.87;100.00
44359;BME280;30077;52.474;13.326;2023-02-17T04:18:51;100963.06;;;6.82;100.00
44359;BME280;30077;52.474;13.326;2023-02-17T04:23:51;100961.31;;;6.81;100.00
44359;BME280;30077;52.474;13.326;2023-02-17T04:28:54;100970.13;;;6.83;100.00
44359;BME280;30077;52.474;13.326;2023-02-17T04:33:54;100950.63;;;6.84;100.00
44359;BME280;30077;52.474;13.326;2023-02-17T04:38:54;100935.66;;;6.83;100.00
44359;BME280;30077;52.474;13.326;2023-02-17T04:43:55;100941.75;;;6.85;100.00
44359;BME280;30077;52.474;13.326;2023-02-17T04:48:55;100955.78;;;6.90;100.00
44359;BME280;30077;52.474;13.326;2023-02-17T04:53:55;100948.72;;;6.89;100.00
44359;BME280;30077;52.474;13.326;2023-02-17T04:58:56;100934.56;;;6.90;100.00
44359;BME280;30077;52.474;13.326;2023-02-17T05:03:56;100929.25;;;6.90;100.00
44359;BME280;30077;52.474;13.326;2023-02-17T05:08:56;100932.66;;;6.95;100.00
44359;BME280;30077;52.474;13.326;2023-02-17T05:13:56;100923.88;;;6.93;100.00
44359;BME280;30077;52.474;13.326;2023-02-17T05:18:56;100919.53;;;6.90;100.00
44359;BME280;30077;52.474;13.326;2023-02-17T05:23:57;100916.81;;;6.92;100.00
44359;BME280;30077;52.474;13.326;2023-02-17T05:28:57;100910.59;;;6.93;100.00
44359;BME280;30077;52.474;13.326;2023-02-17T05:33:57;100903.56;;;6.92;100.00
44359;BME280;30077;52.474;13.326;2023-02-17T05:38:57;100900.06;;;6.91;100.00
44359;BME280;30077;52.474;13.326;2023-02-17T05:43:58;100900.84;;;6.95;100.00
44359;BME280;30077;52.474;13.326;2023-02-17T05:48:58;100891.88;;;6.99;100.00
44359;BME280;30077;52.474;13.326;2023-02-17T05:53:58;100898.91;;;7.00;100.00
44359;BME280;30077;52.474;13.326;2023-02-17T05:58:58;100906.00;;;7.01;100.00
44359;BME280;30077;52.474;13.326;2023-02-17T06:03:59;100887.31;;;7.04;100.00
44359;BME280;30077;52.474;13.326;2023-02-17T06:08:59;100881.03;;;7.08;100.00
44359;BME280;30077;52.474;13.326;2023-02-17T06:13:59;100881.84;;;7.12;100.00
44359;BME280;30077;52.474;13.326;2023-02-17T06:19:00;100872.94;;;7.13;100.00
44359;BME280;30077;52.474;13.326;2023-02-17T06:24:01;100876.41;;;7.15;100.00
44359;BME280;30077;52.474;13.326;2023-02-17T06:29:01;100859.53;;;7.17;100.00
44359;BME280;30077;52.474;13.326;2023-02-17T06:34:01;100861.97;;;7.27;100.00
44359;BME280;30077;52.474;13.326;2023-02-17T06:39:02;100862.84;;;7.26;100.00
44359;BME280;30077;52.474;13.326;2023-02-17T06:44:02;100854.66;;;7.33;100.00
44359;BME280;30077;52.474;13.326;2023-02-17T06:49:02;100856.34;;;7.37;100.00
44359;BME280;30077;52.474;13.326;2023-02-17T06:54:03;100857.00;;;7.44;100.00
44359;BME280;30077;52.474;13.326;2023-02-17T06:59:03;100860.34;;;7.52;100.00
44359;BME280;30077;52.474;13.326;2023-02-17T07:04:03;100851.28;;;7.59;100.00
44359;BME280;30077;52.474;13.326;2023-02-17T07:09:04;100842.06;;;7.71;100.00
44359;BME280;30077;52.474;13.326;2023-02-17T07:14:04;100831.13;;;7.82;100.00
44359;BME280;30077;52.474;13.326;2023-02-17T07:19:04;100835.22;;;7.92;100.00
44359;BME280;30077;52.474;13.326;2023-02-17T07:24:04;100833.19;;;8.00;100.00
44359;BME280;30077;52.474;13.326;2023-02-17T07:29:05;100830.22;;;8.09;100.00
44359;BME280;30077;52.474;13.326;2023-02-17T07:34:05;100831.66;;;8.19;100.00
44359;BME280;30077;52.474;13.326;2023-02-17T07:39:05;100836.59;;;8.32;100.00
44359;BME280;30077;52.474;13.326;2023-02-17T07:44:06;100821.28;;;8.40;100.00
44359;BME280;30077;52.474;13.326;2023-02-17T07:49:06;100811.06;;;8.54;100.00
44359;BME280;30077;52.474;13.326;2023-02-17T07:54:06;100799.97;;;8.66;100.00
44359;BME280;30077;52.474;13.326;2023-02-17T07:59:07;100804.72;;;8.83;100.00
44359;BME280;30077;52.474;13.326;2023-02-17T08:04:07;100812.44;;;8.91;100.00
44359;BME280;30077;52.474;13.326;2023-02-17T08:09:10;100809.97;;;8.85;100.00
44359;BME280;30077;52.474;13.326;2023-02-17T08:14:29;100816.31;;;8.81;100.00
44359;BME280;30077;52.474;13.326;2023-02-17T08:19:30;100818.88;;;8.84;100.00
44359;BME280;30077;52.474;13.326;2023-02-17T08:24:30;100812.44;;;8.91;100.00
44359;BME280;30077;52.474;13.326;2023-02-17T08:29:30;100810.31;;;9.01;100.00
44359;BME280;30077;52.474;13.326;2023-02-17T08:34:30;100802.56;;;8.93;100.00
44359;BME280;30077;52.474;13.326;2023-02-17T08:39:34;100801.19;;;8.83;100.00
44359;BME280;30077;52.474;13.326;2023-02-17T08:44:34;100789.13;;;8.73;100.00
44359;BME280;30077;52.474;13.326;2023-02-17T08:49:35;100790.88;;;8.74;100.00
44359;BME280;30077;52.474;13.326;2023-02-17T08:54:36;100790.00;;;8.73;100.00
44359;BME280;30077;52.474;13.326;2023-02-17T08:59:37;100767.88;;;8.73;100.00
44359;BME280;30077;52.474;13.326;2023-02-17T09:04:37;100752.66;;;8.76;100.00
44359;BME280;30077;52.474;13.326;2023-02-17T09:09:37;100747.16;;;8.81;100.00
44359;BME280;30077;52.474;13.326;2023-02-17T09:14:38;100737.56;;;8.77;100.00
44359;BME280;30077;52.474;13.326;2023-02-17T09:19:38;100726.91;;;8.77;100.00
44359;BME280;30077;52.474;13.326;2023-02-17T09:24:39;100709.06;;;8.80;100.00
44359;BME280;30077;52.474;13.326;2023-02-17T09:29:39;100705.53;;;8.80;100.00
44359;BME280;30077;52.474;13.326;2023-02-17T09:34:40;100701.72;;;8.87;100.00
44359;BME280;30077;52.474;13.326;2023-02-17T09:39:48;100691.75;;;8.92;100.00
44359;BME280;30077;52.474;13.326;2023-02-17T09:44:54;100681.88;;;8.96;100.00
44359;BME280;30077;52.474;13.326;2023-02-17T09:50:00;100678.47;;;8.92;100.00
44359;BME280;30077;52.474;13.326;2023-02-17T09:55:05;100665.88;;;8.97;100.00
44359;BME280;30077;52.474;13.326;2023-02-17T10:00:08;100658.78;;;8.96;100.00
44359;BME280;30077;52.474;13.326;2023-02-17T10:05:10;100657.69;;;9.02;100.00
44359;BME280;30077;52.474;13.326;2023-02-17T10:10:14;100646.97;;;9.03;100.00
44359;BME280;30077;52.474;13.326;2023-02-17T10:15:16;100632.63;;;9.07;100.00
44359;BME280;30077;52.474;13.326;2023-02-17T10:20:22;100633.31;;;9.12;100.00
44359;BME280;30077;52.474;13.326;2023-02-17T10:25:26;100625.06;;;9.19;100.00
44359;BME280;30077;52.474;13.326;2023-02-17T10:30:54;100619.63;;;9.22;100.00
44359;BME280;30077;52.474;13.326;2023-02-17T10:36:10;100602.25;;;9.35;100.00
44359;BME280;30077;52.474;13.326;2023-02-17T10:41:11;100585.38;;;9.56;100.00
44359;BME280;30077;52.474;13.326;2023-02-17T10:46:13;100584.06;;;9.67;100.00
44359;BME280;30077;52.474;13.326;2023-02-17T10:51:14;100574.19;;;9.69;100.00
44359;BME280;30077;52.474;13.326;2023-02-17T10:56:27;100558.59;;;9.80;100.00
44359;BME280;30077;52.474;13.326;2023-02-17T11:01:31;100555.28;;;9.95;100.00
44359;BME280;30077;52.474;13.326;2023-02-17T11:06:35;100540.31;;;9.93;100.00
44359;BME280;30077;52.474;13.326;2023-02-17T11:11:36;100510.00;;;9.95;100.00
44359;BME280;30077;52.474;13.326;2023-02-17T11:16:37;100517.34;;;10.09;100.00
44359;BME280;30077;52.474;13.326;2023-02-17T11:21:41;100492.09;;;10.18;100.00
44359;BME280;30077;52.474;13.326;2023-02-17T11:26:42;100482.56;;;10.12;100.00
44359;BME280;30077;52.474;13.326;2023-02-17T11:31:51;100480.16;;;10.26;100.00
44359;BME280;30077;52.474;13.326;2023-02-17T11:42:22;100447.63;;;10.37;100.00
44359;BME280;30077;52.474;13.326;2023-02-17T11:52:37;100420.47;;;10.48;100.00
44359;BME280;30077;52.474;13.326;2023-02-17T11:57:52;100396.53;;;10.46;100.00
44359;BME280;30077;52.474;13.326;2023-02-17T12:13:23;100385.41;;;10.55;100.00
44359;BME280;30077;52.474;13.326;2023-02-17T12:33:59;100334.59;;;10.93;100.00
44359;BME280;30077;52.474;13.326;2023-02-17T12:39:10;100339.38;;;11.04;100.00
44359;BME280;30077;52.474;13.326;2023-02-17T12:44:14;100303.22;;;11.14;100.00
44359;BME280;30077;52.474;13.326;2023-02-17T12:49:30;100321.63;;;11.36;100.00
44359;BME280;30077;52.474;13.326;2023-02-17T12:54:35;100312.97;;;11.48;100.00
44359;BME280;30077;52.474;13.326;2023-02-17T12:59:40;100313.41;;;11.56;100.00
44359;BME280;30077;52.474;13.326;2023-02-17T13:04:42;100320.03;;;11.49;100.00
44359;BME280;30077;52.474;13.326;2023-02-17T13:09:44;100321.88;;;11.31;100.00
44359;BME280;30077;52.474;13.326;2023-02-17T13:14:46;100307.66;;;11.31;100.00
44359;BME280;30077;52.474;13.326;2023-02-17T13:19:46;100291.06;;;11.42;100.00
44359;BME280;30077;52.474;13.326;2023-02-17T13:24:50;100309.50;;;11.46;100.00
44359;BME280;30077;52.474;13.326;2023-02-17T13:35:02;100283.84;;;11.60;100.00
44359;BME280;30077;52.474;13.326;2023-02-17T13:40:51;100278.94;;;11.68;100.00
44359;BME280;30077;52.474;13.326;2023-02-17T13:45:27;100284.09;;;11.71;100.00
44359;BME280;30077;52.474;13.326;2023-02-17T13:50:34;100278.34;;;11.78;100.00
44359;BME280;30077;52.474;13.326;2023-02-17T13:55:34;100263.69;;;11.70;100.00
44359;BME280;30077;52.474;13.326;2023-02-17T14:00:35;100258.50;;;11.67;100.00
44359;BME280;30077;52.474;13.326;2023-02-17T14:05:36;100276.78;;;11.74;100.00
44359;BME280;30077;52.474;13.326;2023-02-17T14:10:37;100278.78;;;11.71;100.00
44359;BME280;30077;52.474;13.326;2023-02-17T14:15:37;100287.66;;;11.87;100.00
44359;BME280;30077;52.474;13.326;2023-02-17T14:20:47;100279.66;;;11.87;100.00
44359;BME280;30077;52.474;13.326;2023-02-17T14:25:58;100295.19;;;11.96;100.00
44359;BME280;30077;52.474;13.326;2023-02-17T14:31:11;;;;11.87;
44359;BME280;30077;52.474;13.326;2023-02-17T14:36:24;100312.41;;;11.91;100.00
44359;BME280;30077;52.474;13.326;2023-02-17T14:41:24;100303.38;;;11.93;100.00
44359;BME280;30077;52.474;13.326;2023-02-17T14:46:25;100323.03;;;11.92;100.00
44359;BME280;30077;52.474;13.326;2023-02-17T14:51:30;100324.19;;;11.71;100.00
44359;BME280;30077;52.474;13.326;2023-02-17T14:56:32;100310.50;;;11.28;100.00
44359;BME280;30077;52.474;13.326;2023-02-17T15:01:36;100315.72;;;10.96;100.00
44359;BME280;30077;52.474;13.326;2023-02-17T15:06:40;100304.91;;;10.82;100.00
44359;BME280;30077;52.474;13.326;2023-02-17T15:11:42;100311.84;;;10.69;100.00
44359;BME280;30077;52.474;13.326;2023-02-17T15:16:45;100303.53;;;10.57;100.00
44359;BME280;30077;52.474;13.326;2023-02-17T15:21:46;100302.56;;;10.58;100.00
44359;BME280;30077;52.474;13.326;2023-02-17T15:26:47;100295.00;;;10.49;100.00
44359;BME280;30077;52.474;13.326;2023-02-17T15:31:48;100292.28;;;10.51;100.00
44359;BME280;30077;52.474;13.326;2023-02-17T15:36:48;100278.09;;;10.50;100.00
44359;BME280;30077;52.474;13.326;2023-02-17T15:41:48;100292.34;;;10.49;100.00
44359;BME280;30077;52.474;13.326;2023-02-17T15:46:49;100282.00;;;10.43;100.00
44359;BME280;30077;52.474;13.326;2023-02-17T15:51:50;100270.69;;;10.38;100.00
44359;BME280;30077;52.474;13.326;2023-02-17T15:56:50;100259.16;;;10.38;100.00
44359;BME280;30077;52.474;13.326;2023-02-17T16:01:52;100269.13;;;10.34;100.00
44359;BME280;30077;52.474;13.326;2023-02-17T16:06:54;100274.63;;;10.31;100.00
44359;BME280;30077;52.474;13.326;2023-02-17T16:11:55;100248.66;;;10.34;100.00
44359;BME280;30077;52.474;13.326;2023-02-17T16:16:56;100251.25;;;10.36;100.00
44359;BME280;30077;52.474;13.326;2023-02-17T16:21:56;100260.22;;;10.35;100.00
44359;BME280;30077;52.474;13.326;2023-02-17T16:26:57;100273.03;;;10.27;100.00
44359;BME280;30077;52.474;13.326;2023-02-17T16:31:57;100295.78;;;10.34;100.00
44359;BME280;30077;52.474;13.326;2023-02-17T16:36:58;100304.44;;;10.39;100.00
44359;BME280;30077;52.474;13.326;2023-02-17T16:41:59;100308.53;;;10.46;100.00
44359;BME280;30077;52.474;13.326;2023-02-17T16:47:00;100279.81;;;10.51;100.00
44359;BME280;30077;52.474;13.326;2023-02-17T16:52:06;100323.28;;;10.71;100.00
44359;BME280;30077;52.474;13.326;2023-02-17T16:57:09;100310.03;;;10.69;100.00
44359;BME280;30077;52.474;13.326;2023-02-17T17:02:14;100290.63;;;10.66;100.00
44359;BME280;30077;52.474;13.326;2023-02-17T17:07:14;100298.25;;;10.73;100.00
44359;BME280;30077;52.474;13.326;2023-02-17T17:12:15;100295.19;;;10.64;100.00
44359;BME280;30077;52.474;13.326;2023-02-17T17:17:15;100323.09;;;10.56;100.00
44359;BME280;30077;52.474;13.326;2023-02-17T17:22:15;100314.03;;;10.60;100.00
44359;BME280;30077;52.474;13.326;2023-02-17T17:27:15;100316.75;;;10.59;100.00
44359;BME280;30077;52.474;13.326;2023-02-17T17:32:15;100327.59;;;10.56;100.00
44359;BME280;30077;52.474;13.326;2023-02-17T17:37:15;100320.09;;;10.64;100.00
44359;BME280;30077;52.474;13.326;2023-02-17T17:42:16;100323.22;;;10.72;100.00
44359;BME280;30077;52.474;13.326;2023-02-17T17:47:17;100316.47;;;10.82;100.00
44359;BME280;30077;52.474;13.326;2023-02-17T17:52:18;100341.00;;;10.89;100.00
44359;BME280;30077;52.474;13.326;2023-02-17T17:57:19;100344.16;;;10.97;100.00
44359;BME280;30077;52.474;13.326;2023-02-17T18:02:21;100355.75;;;10.96;100.00
44359;BME280;30077;52.474;13.326;2023-02-17T18:07:21;100349.50;;;10.97;100.00
44359;BME280;30077;52.474;13.326;2023-02-17T18:12:21;100340.53;;;10.98;100.00
44359;BME280;30077;52.474;13.326;2023-02-17T18:17:21;100384.34;;;10.94;100.00
44359;BME280;30077;52.474;13.326;2023-02-17T18:22:22;100398.16;;;10.85;100.00
44359;BME280;30077;52.474;13.326;2023-02-17T18:27:22;100427.94;;;10.58;100.00
44359;BME280;30077;52.474;13.326;2023-02-17T18:32:23;100450.59;;;10.31;100.00
44359;BME280;30077;52.474;13.326;2023-02-17T18:37:23;100460.28;;;9.94;100.00
44359;BME280;30077;52.474;13.326;2023-02-17T18:42:24;100461.91;;;9.78;100.00
44359;BME280;30077;52.474;13.326;2023-02-17T18:47:24;100465.78;;;9.71;100.00
44359;BME280;30077;52.474;13.326;2023-02-17T18:52:25;100456.84;;;9.72;100.00
44359;BME280;30077;52.474;13.326;2023-02-17T18:57:25;100494.47;;;9.84;100.00
44359;BME280;30077;52.474;13.326;2023-02-17T19:02:25;100514.78;;;9.87;100.00
44359;BME280;30077;52.474;13.326;2023-02-17T19:07:25;100503.56;;;9.80;100.00
44359;BME280;30077;52.474;13.326;2023-02-17T19:12:25;100509.19;;;9.73;98.44
44359;BME280;30077;52.474;13.326;2023-02-17T19:17:25;100521.84;;;9.68;94.22
44359;BME280;30077;52.474;13.326;2023-02-17T19:22:27;100535.56;;;9.58;90.32
44359;BME280;30077;52.474;13.326;2023-02-17T19:27:27;100533.78;;;9.59;82.78
44359;BME280;30077;52.474;13.326;2023-02-17T19:32:27;100544.91;;;9.48;79.97
44359;BME280;30077;52.474;13.326;2023-02-17T19:37:28;100560.47;;;9.37;76.68
44359;BME280;30077;52.474;13.326;2023-02-17T19:42:28;100583.06;;;9.27;74.92
44359;BME280;30077;52.474;13.326;2023-02-17T19:47:28;100585.31;;;9.15;75.21
44359;BME280;30077;52.474;13.326;2023-02-17T19:52:29;100598.28;;;9.01;74.87
44359;BME280;30077;52.474;13.326;2023-02-17T19:57:30;100593.31;;;8.92;76.24
44359;BME280;30077;52.474;13.326;2023-02-17T20:02:30;100609.66;;;8.83;76.13
44359;BME280;30077;52.474;13.326;2023-02-17T20:07:30;100608.38;;;8.70;76.01
44359;BME280;30077;52.474;13.326;2023-02-17T20:12:30;100625.44;;;8.64;75.87
44359;BME280;30077;52.474;13.326;2023-02-17T20:17:31;100611.44;;;8.59;76.04
44359;BME280;30077;52.474;13.326;2023-02-17T20:22:31;100618.00;;;8.50;76.86
44359;BME280;30077;52.474;13.326;2023-02-17T20:27:32;100616.22;;;8.49;76.34
44359;BME280;30077;52.474;13.326;2023-02-17T20:32:32;100629.81;;;8.41;76.51
44359;BME280;30077;52.474;13.326;2023-02-17T20:37:32;100638.88;;;8.36;77.44
44359;BME280;30077;52.474;13.326;2023-02-17T20:42:32;100655.84;;;8.32;77.35
44359;BME280;30077;52.474;13.326;2023-02-17T20:47:32;100644.78;;;8.19;78.69
44359;BME280;30077;52.474;13.326;2023-02-17T20:52:33;100660.88;;;8.14;79.98
44359;BME280;30077;52.474;13.326;2023-02-17T20:57:34;100671.88;;;8.04;81.95
44359;BME280;30077;52.474;13.326;2023-02-17T21:02:34;100686.97;;;8.03;80.78
44359;BME280;30077;52.474;13.326;2023-02-17T21:07:35;100709.19;;;8.01;81.13
44359;BME280;30077;52.474;13.326;2023-02-17T21:12:35;100705.59;;;8.02;81.50
44359;BME280;30077;52.474;13.326;2023-02-17T21:17:35;100705.06;;;7.92;81.94
44359;BME280;30077;52.474;13.326;2023-02-17T21:22:36;100715.06;;;7.84;82.43
44359;BME280;30077;52.474;13.326;2023-02-17T21:27:36;100723.91;;;7.84;83.56
44359;BME280;30077;52.474;13.326;2023-02-17T21:32:37;100715.38;;;7.75;84.65
44359;BME280;30077;52.474;13.326;2023-02-17T21:37:37;100710.31;;;7.67;84.92
44359;BME280;30077;52.474;13.326;2023-02-17T21:42:40;100721.13;;;7.61;84.72
44359;BME280;30077;52.474;13.326;2023-02-17T21:47:59;100713.22;;;7.59;85.07
44359;BME280;30077;52.474;13.326;2023-02-17T21:52:59;100731.06;;;7.54;85.64
44359;BME280;30077;52.474;13.326;2023-02-17T21:57:59;100733.00;;;7.49;87.11
44359;BME280;30077;52.474;13.326;2023-02-17T22:02:59;100733.09;;;7.46;88.77
44359;BME280;30077;52.474;13.326;2023-02-17T22:07:59;100745.41;;;7.48;87.77
44359;BME280;30077;52.474;13.326;2023-02-17T22:12:59;100755.88;;;7.53;87.07
44359;BME280;30077;52.474;13.326;2023-02-17T22:18:00;100766.31;;;7.59;86.93
44359;BME280;30077;52.474;13.326;2023-02-17T22:23:00;100786.13;;;7.47;86.75
44359;BME280;30077;52.474;13.326;2023-02-17T22:28:00;100789.66;;;7.48;86.52
44359;BME280;30077;52.474;13.326;2023-02-17T22:33:01;100803.84;;;7.47;86.36
44359;BME280;30077;52.474;13.326;2023-02-17T22:38:01;100802.97;;;7.46;85.54
44359;BME280;30077;52.474;13.326;2023-02-17T22:43:01;100819.97;;;7.41;85.85
44359;BME280;30077;52.474;13.326;2023-02-17T22:48:01;100807.59;;;7.40;86.07
44359;BME280;30077;52.474;13.326;2023-02-17T22:53:01;100812.34;;;7.29;86.23
44359;BME280;30077;52.474;13.326;2023-02-17T22:58:02;100815.09;;;7.26;86.87
44359;BME280;30077;52.474;13.326;2023-02-17T23:03:02;100823.03;;;7.26;86.80
44359;BME280;30077;52.474;13.326;2023-02-17T23:08:02;100823.97;;;7.24;86.50
44359;BME280;30077;52.474;13.326;2023-02-17T23:13:03;100827.63;;;7.20;87.48
44359;BME280;30077;52.474;13.326;2023-02-17T23:18:04;100825.78;;;7.22;87.34
44359;BME280;30077;52.474;13.326;2023-02-17T23:23:04;100832.22;;;7.15;88.23
44359;BME280;30077;52.474;13.326;2023-02-17T23:28:05;100815.53;;;7.10;88.22
44359;BME280;30077;52.474;13.326;2023-02-17T23:33:06;100837.69;;;7.09;88.71
44359;BME280;30077;52.474;13.326;2023-02-17T23:38:07;100834.09;;;7.10;88.84
44359;BME280;30077;52.474;13.326;2023-02-17T23:43:07;100842.34;;;7.01;89.29
44359;BME280;30077;52.474;13.326;2023-02-17T23:48:07;100853.81;;;7.02;89.79
44359;BME280;30077;52.474;13.326;2023-02-17T23:53:08;100834.53;;;6.95;90.49
44359;BME280;30077;52.474;13.326;2023-02-17T23:58:09;100844.22;;;6.96;91.05
